Latest Weather Observations for St George

IDQ60801

Issued at 3:05 pm EST Saturday 1 November 2014 (issued every 30 minutes, with the page automatically refreshed every 10 minutes)

About weather observations | Map of weather stations | Latest weather observations for QLD | Other Formats
Station Details ID: 043109 Name: ST GEORGE AIRPORT Lat: -28.05 Lon: 148.59 Height: 198.5 m
Data from the previous 72 hours. | See also: Recent months at St George
Date/Time
EST
Temp
°C
App
Temp
°C
Dew
Point
Rel
Hum
%
Delta-T
°C
Wind Press
QNH
hPa
Press
MSL
hPa
Rain
since 9 am
mm
Dir
 
Spd
km/h
Gust
km/h
Spd
kts
Gust
kts
01/03:00pm 37.8 31.1 3.5 12 18.4 WNW 28 43 15 23 1004.8 1003.8 0.0
01/02:30pm 37.0 30.7 4.0 13 17.8 W 26 43 14 23 1005.3 - 0.0
01/02:00pm 37.0 31.5 4.0 13 17.7 W 22 33 12 18 1005.7 - 0.0
01/01:30pm 37.6 31.2 3.4 12 18.2 W 26 39 14 21 1006.3 - 0.0
01/01:00pm 36.2 31.4 8.9 19 15.7 NNW 24 43 13 23 1006.9 - 0.0
01/12:30pm 35.8 30.6 10.1 21 15.1 NNW 28 39 15 21 1007.6 - 0.0
01/12:00pm 34.2 29.7 11.4 25 13.6 N 26 41 14 22 1008.1 1007.0 0.0
01/11:30am 33.4 28.8 12.4 28 12.6 NNW 28 39 15 21 1008.8 - 0.0
01/11:00am 31.8 27.5 13.1 32 11.3 NNW 28 37 15 20 1009.3 - 0.0
01/10:48am 31.0 26.7 13.3 34 10.7 N 28 48 15 26 1009.5 - 0.0
01/10:30am 30.3 26.2 14.8 39 9.5 N 30 43 16 23 1009.9 - 0.0
01/10:00am 28.1 23.2 14.3 42 8.4 N 33 56 18 30 1010.2 - 0.0
01/09:30am 26.9 22.9 16.2 52 6.6 N 32 44 17 24 1010.3 - 0.0
01/09:10am 25.6 21.3 15.9 55 6.0 N 33 52 18 28 1010.4 - 0.0
01/09:00am 25.4 21.1 16.0 56 5.8 N 33 46 18 25 1010.5 1009.5 7.8
01/08:32am 24.7 20.2 15.3 56 5.7 N 33 52 18 28 1010.6 - 7.6
01/08:30am 24.8 20.7 16.5 60 5.1 N 33 50 18 27 1010.6 - 7.6
01/08:00am 23.9 19.1 15.7 60 5.0 N 35 50 19 27 1010.3 - 7.6
01/07:39am 23.5 19.7 15.8 62 4.7 N 30 48 16 26 1010.4 - 7.6
01/07:30am 22.9 18.7 15.7 64 4.4 N 32 46 17 25 1010.4 - 7.6
01/07:22am 22.8 19.3 15.6 64 4.4 N 28 46 15 25 1010.5 - 7.6
01/07:00am 22.6 19.7 16.2 67 3.9 N 26 39 14 21 1010.5 - 7.6
01/06:30am 22.4 20.3 16.2 68 3.8 N 22 32 12 17 1010.4 - 7.6
01/06:00am 22.6 19.6 15.9 66 4.1 NNE 26 35 14 19 1010.0 1009.0 7.6
01/05:30am 22.9 19.3 16.2 66 4.1 NNE 30 44 16 24 1009.7 - 7.6
01/05:00am 22.5 19.6 17.0 71 3.4 NNE 28 41 15 22 1009.4 - 7.6
01/04:40am 22.6 18.9 16.9 70 3.5 NNE 32 50 17 27 1009.2 - 7.6
01/04:30am 22.3 18.5 17.2 73 3.2 N 33 50 18 27 1009.0 - 7.6
01/04:22am 22.2 18.6 17.3 74 3.0 N 32 50 17 27 1008.9 - 7.6
01/04:00am 21.6 17.8 17.2 76 2.7 NNE 33 41 18 22 1009.6 - 7.4
01/03:30am 23.0 21.7 15.8 64 4.4 N 17 24 9 13 1009.4 - 3.6
01/03:00am 23.2 22.3 15.8 63 4.5 NNE 15 28 8 15 1008.9 1007.9 3.6
01/02:30am 22.8 21.0 15.6 64 4.4 NE 19 24 10 13 1008.5 - 3.6
01/02:00am 23.1 21.4 15.7 63 4.5 NE 19 26 10 14 1008.6 - 3.6
01/01:00am 24.0 21.5 15.2 58 5.3 NE 22 35 12 19 1008.8 - 3.6
01/12:30am 23.1 21.4 15.7 63 4.5 NNE 19 32 10 17 1008.8 - 3.6
01/12:00am 23.4 19.5 15.5 61 4.8 N 30 48 16 26 1009.0 1008.0 3.6
 
Date/Time
EST
Temp
°C
App
Temp
°C
Dew
Point
Rel
Hum
%
Delta-T
°C
Wind Press
QNH
hPa
Press
MSL
hPa
Rain
since 9 am
mm
Dir
 
Spd
km/h
Gust
km/h
Spd
kts
Gust
kts
31/11:46pm 23.5 19.9 15.3 60 5.0 NNE 28 50 15 27 1008.7 - 3.4
31/11:30pm 23.3 19.8 15.6 62 4.7 NNE 28 43 15 23 1009.8 - 3.4
31/11:26pm 23.5 19.9 15.3 60 5.0 NNE 28 44 15 24 1009.7 - 3.4
31/11:00pm 22.4 21.1 17.3 73 3.2 NNE 20 30 11 16 1011.8 - 3.4
31/10:30pm 21.3 21.4 17.5 79 2.4 E 13 15 7 8 1012.4 - 3.4
31/10:00pm 22.7 21.1 16.0 66 4.1 WNW 19 22 10 12 1013.9 - 2.8
31/09:30pm 22.9 18.8 16.0 65 4.2 WNW 32 43 17 23 1013.5 - 2.0
31/09:18pm 22.2 17.7 15.3 65 4.1 W 33 52 18 28 1012.9 - 1.4
31/09:14pm 23.7 18.2 14.7 57 5.4 WSW 37 52 20 28 1012.8 - 0.6
31/09:05pm 29.0 20.5 9.2 29 11.1 WSW 44 52 24 28 1011.5 - 0.0
31/09:00pm 30.6 25.2 6.5 22 13.0 W 24 33 13 18 1010.6 1009.9 0.0
31/08:30pm 31.1 26.4 6.2 21 13.4 NNE 20 28 11 15 1009.0 - 0.0
31/08:00pm 31.0 27.4 6.8 22 13.2 N 15 24 8 13 1008.7 - 0.0
31/07:30pm 31.2 28.8 8.8 25 12.6 NNW 11 22 6 12 1008.5 - 0.0
31/07:00pm 30.3 28.6 7.5 24 12.5 SSW 6 9 3 5 1008.5 - 0.0
31/06:30pm 32.9 29.3 9.7 24 13.3 N 19 24 10 13 1008.6 - 0.0
31/06:00pm 33.1 31.4 8.5 22 13.9 NW 7 11 4 6 1008.3 1007.5 0.0
31/05:30pm 33.9 31.5 8.5 21 14.4 N 11 17 6 9 1007.5 - 0.0
31/05:00pm 33.8 31.0 8.4 21 14.4 NNE 13 20 7 11 1007.4 - 0.0
31/04:30pm 34.4 31.1 8.2 20 14.8 NNE 15 24 8 13 1007.3 - 0.0
31/04:00pm 34.5 30.3 7.5 19 15.1 N 19 26 10 14 1007.5 - 0.0
31/03:30pm 34.5 30.1 7.5 19 15.1 N 20 30 11 16 1007.7 - 0.0
31/03:00pm 34.5 29.4 7.5 19 15.1 N 24 37 13 20 1008.0 1007.2 0.0
31/02:30pm 34.8 29.7 6.2 17 15.7 N 22 32 12 17 1008.3 - 0.0
31/02:00pm 35.0 29.8 5.4 16 16.1 N 22 33 12 18 1008.6 - 0.0
31/01:30pm 35.2 30.6 6.5 17 15.9 N 20 30 11 16 1009.1 - 0.0
31/01:00pm 35.3 30.7 8.2 19 15.4 N 22 35 12 19 1009.6 - 0.0
31/12:30pm 35.3 29.9 8.2 19 15.4 N 26 37 14 20 1010.3 - 0.0
31/12:00pm 35.1 30.3 8.8 20 15.1 N 24 35 13 19 1010.7 1010.0 0.0
31/11:30am 35.2 30.0 8.9 20 15.1 N 26 37 14 20 1011.3 - 0.0
31/11:00am 34.4 30.9 10.9 24 13.9 N 20 30 11 16 1011.9 - 0.0
31/10:30am 34.3 31.3 12.6 27 13.1 N 20 30 11 16 1012.3 - 0.0
31/10:00am 32.5 29.6 12.2 29 12.1 N 19 26 10 14 1012.7 - 0.0
31/09:30am 31.1 28.2 12.9 32 10.9 N 20 32 11 17 1013.1 - 0.0
31/09:00am 30.0 26.9 13.3 36 10.0 N 22 33 12 18 1013.2 1012.5 0.0
31/08:30am 28.8 25.6 13.1 38 9.4 N 22 35 12 19 1013.1 - 0.0
31/08:00am 28.1 24.7 13.6 41 8.7 N 24 30 13 16 1013.3 - 0.0
31/07:30am 27.4 24.4 13.7 43 8.2 N 22 35 12 19 1013.2 - 0.0
31/07:00am 26.8 23.2 14.2 46 7.6 N 26 35 14 19 1013.0 - 0.0
31/06:30am 25.2 22.9 14.0 49 6.7 N 19 28 10 15 1012.9 - 0.0
31/06:00am 23.8 22.4 13.4 52 6.1 NNE 13 20 7 11 1013.0 1012.3 0.0
31/05:30am 22.7 21.0 12.6 53 5.8 NNE 13 17 7 9 1012.6 - 0.0
31/05:00am 22.7 20.6 11.1 48 6.5 N 13 17 7 9 1012.3 - 0.0
31/04:30am 22.4 20.8 10.2 46 6.7 NNE 9 13 5 7 1012.1 - 0.0
31/04:00am 22.9 20.6 9.0 41 7.5 NNE 11 13 6 7 1011.9 - 0.0
31/03:30am 22.4 19.5 6.6 36 8.2 N 11 13 6 7 1011.8 - 0.0
31/03:00am 21.3 18.6 3.5 31 8.6 NNE 7 9 4 5 1011.8 1011.0 0.0
31/02:30am 22.1 18.9 3.3 29 9.1 ENE 9 11 5 6 1011.6 - 0.0
31/02:00am 22.9 20.1 2.9 27 9.7 ENE 7 9 4 5 1011.6 - 0.0
31/01:30am 23.8 20.1 2.6 25 10.2 E 11 15 6 8 1011.5 - 0.0
31/01:00am 24.7 21.1 2.8 24 10.7 ENE 11 17 6 9 1011.8 - 0.0
31/12:30am 25.7 21.2 2.4 22 11.4 E 15 20 8 11 1011.7 - 0.0
31/12:00am 25.8 21.7 2.5 22 11.4 E 13 19 7 10 1012.1 1011.3 0.0
 
Date/Time
EST
Temp
°C
App
Temp
°C
Dew
Point
Rel
Hum
%
Delta-T
°C
Wind Press
QNH
hPa
Press
MSL
hPa
Rain
since 9 am
mm
Dir
 
Spd
km/h
Gust
km/h
Spd
kts
Gust
kts
30/11:30pm 24.6 21.0 2.7 24 10.7 ESE 11 15 6 8 1012.3 - 0.0
30/11:00pm 25.1 21.2 1.3 21 11.3 ESE 11 15 6 8 1012.5 - 0.0
30/10:30pm 25.5 21.6 0.9 20 11.7 ESE 11 13 6 7 1012.6 - 0.0
30/10:00pm 26.5 22.6 1.0 19 12.2 SE 11 13 6 7 1012.7 - 0.0
30/09:30pm 26.8 23.2 0.5 18 12.5 SE 9 13 5 7 1012.4 - 0.0
30/09:00pm 25.8 22.6 0.5 19 11.9 SSE 7 9 4 5 1012.2 1011.4 0.0
30/08:30pm 27.5 24.0 1.1 18 12.7 SE 9 11 5 6 1012.1 - 0.0
30/08:00pm 27.9 24.9 0.6 17 13.1 SSE 6 7 3 4 1011.9 - 0.0
30/07:30pm 29.5 25.8 0.2 15 14.1 SE 9 9 5 5 1011.7 - 0.0
30/07:00pm 30.4 27.1 -0.1 14 14.7 SE 7 9 4 5 1011.4 - 0.0
30/06:30pm 31.5 27.8 -0.2 13 15.4 SE 9 13 5 7 1011.0 - 0.0
30/06:00pm 32.7 28.6 -0.4 12 16.2 SSE 11 13 6 7 1010.6 1009.9 0.0
30/05:30pm 33.6 29.0 -0.9 11 16.8 S 13 17 7 9 1010.6 - 0.0
30/05:00pm 34.1 29.6 -0.5 11 17.0 S 13 19 7 10 1010.4 - 0.0
30/04:30pm 34.4 29.9 -0.3 11 17.1 SE 13 19 7 10 1010.2 - 0.0
30/04:00pm 34.8 31.5 0.0 11 17.3 E 7 11 4 6 1010.3 - 0.0
30/03:30pm 35.0 31.7 0.2 11 17.4 SE 7 13 4 7 1010.5 - 0.0
30/03:00pm 35.0 31.3 0.2 11 17.4 NNW 9 13 5 7 1010.8 1010.1 0.0
30/02:30pm 35.0 30.8 1.4 12 17.1 S 13 20 7 11 1011.0 - 0.0
30/02:00pm 34.8 30.9 1.2 12 17.0 NNW 11 20 6 11 1011.7 - 0.0
30/01:30pm 34.3 30.5 1.9 13 16.6 S 11 20 6 11 1012.2 - 0.0
30/01:00pm 34.5 31.3 1.0 12 16.9 E 7 17 4 9 1012.7 - 0.0
30/12:30pm 33.5 29.8 2.4 14 16.0 NNW 11 19 6 10 1013.3 - 0.0
30/12:00pm 32.5 28.8 2.5 15 15.3 NNW 11 17 6 9 1013.8 1013.1 0.0
30/11:30am 32.8 29.6 2.8 15 15.4 ENE 9 13 5 7 1014.2 - 0.0
30/11:00am 32.3 28.6 2.4 15 15.2 WSW 11 17 6 9 1014.7 - 0.0
30/10:30am 30.9 28.1 5.3 20 13.6 NNW 9 15 5 8 1015.1 - 0.0
30/10:00am 30.3 28.3 6.9 23 12.7 E 7 15 4 8 1015.6 - 0.0
30/09:30am 29.9 27.7 9.4 28 11.6 N 11 19 6 10 1016.2 - 0.0
30/09:00am 28.2 25.1 10.4 33 10.1 NNE 17 24 9 13 1016.2 1015.5 0.0
30/08:30am 27.0 24.5 12.3 40 8.6 N 17 22 9 12 1016.5 - 0.0
30/08:00am 25.8 23.5 13.0 45 7.5 N 17 24 9 13 1016.6 - 0.0
30/07:30am 24.4 21.3 11.7 45 7.3 N 19 22 10 12 1016.3 - 0.0
30/07:00am 22.2 19.3 9.7 45 6.8 NNE 15 20 8 11 1016.3 - 0.0
30/06:30am 20.2 17.5 5.4 38 7.4 NE 9 13 5 7 1016.2 - 0.0
30/06:00am 18.0 15.5 3.9 39 6.7 NE 6 7 3 4 1015.9 1015.2 0.0
30/05:30am 16.5 13.8 3.6 42 6.0 ENE 7 11 4 6 1015.5 - 0.0
30/05:00am 16.5 13.2 2.5 39 6.4 E 9 11 5 6 1014.9 - 0.0
30/04:30am 15.8 12.8 2.2 40 6.1 ESE 7 9 4 5 1014.6 - 0.0
30/04:00am 17.0 14.1 2.6 38 6.6 E 7 7 4 4 1014.6 - 0.0
30/03:30am 18.4 14.8 3.1 36 7.2 E 11 15 6 8 1014.4 - 0.0
30/03:00am 16.3 13.5 2.0 38 6.4 ESE 6 7 3 4 1014.2 1013.5 0.0
30/02:30am 15.9 13.1 3.4 43 5.8 SE 7 9 4 5 1014.1 - 0.0
30/02:00am 16.3 14.9 3.7 43 5.9 CALM 0 0 0 0 1014.1 - 0.0
30/01:30am 16.4 14.9 3.1 41 6.1 CALM 0 0 0 0 1014.3 - 0.0
30/01:00am 16.8 15.5 4.2 43 6.0 CALM 0 0 0 0 1014.4 - 0.0
30/12:30am 17.1 15.7 3.4 40 6.4 CALM 0 0 0 0 1014.3 - 0.0
30/12:00am 17.8 16.4 3.7 39 6.7 CALM 0 0 0 0 1014.5 1013.8 0.0
 
Date/Time
EST
Temp
°C
App
Temp
°C
Dew
Point
Rel
Hum
%
Delta-T
°C
Wind Press
QNH
hPa
Press
MSL
hPa
Rain
since 9 am
mm
Dir
 
Spd
km/h
Gust
km/h
Spd
kts
Gust
kts
29/11:30pm 18.3 16.6 1.8 33 7.5 CALM 0 0 0 0 1014.6 - 0.0
29/11:00pm 18.6 17.2 3.3 36 7.2 CALM 0 0 0 0 1014.8 - 0.0
29/10:30pm 18.9 17.3 2.3 33 7.7 CALM 0 0 0 0 1014.9 - 0.0
29/10:00pm 19.2 17.7 3.0 34 7.6 CALM 0 0 0 0 1014.8 - 0.0
29/09:30pm 20.1 19.1 5.4 38 7.3 CALM 0 0 0 0 1014.8 - 0.0
29/09:00pm 20.8 19.0 1.1 27 9.0 CALM 0 0 0 0 1014.7 1014.0 0.0
29/08:30pm 21.7 20.2 2.9 29 9.0 CALM 0 0 0 0 1014.5 - 0.0
29/08:00pm 23.0 21.0 0.2 22 10.5 CALM 0 0 0 0 1014.3 - 0.0
29/07:30pm 24.5 22.5 0.1 20 11.3 CALM 0 0 0 0 1014.1 - 0.0
29/07:00pm 26.5 23.2 0.3 18 12.4 SSW 7 7 4 4 1013.8 - 0.0
29/06:30pm 28.8 25.3 -1.3 14 14.1 S 7 9 4 5 1013.5 - 0.0
29/06:00pm 30.4 25.8 -1.1 13 14.9 S 13 17 7 9 1013.3 1012.6 0.0
29/05:30pm 31.3 26.3 -1.5 12 15.5 S 15 20 8 11 1013.1 - 0.0
29/05:00pm 32.0 27.0 -0.9 12 15.8 S 15 22 8 12 1013.1 - 0.0
29/04:30pm 32.1 27.4 -2.0 11 16.1 SSW 13 19 7 10 1013.0 - 0.0
29/04:00pm 32.0 26.1 -2.1 11 16.1 SSE 19 24 10 13 1013.1 - 0.0
29/03:30pm 32.0 26.1 -2.1 11 16.1 S 19 30 10 16 1013.1 - 0.0

Other Formats:

Comma delimited format used in spreadsheet applications
http://www.bom.gov.au/fwo/IDQ60801/IDQ60801.94517.axf

JavaScript Object Notation format (JSON) in row-major order
http://www.bom.gov.au/fwo/IDQ60801/IDQ60801.94517.json